sensor_id;sensor_type;location;lat;lon;timestamp;temperature;humidity
23783;DHT22;12071;50.850;4.446;2023-07-20T00:00:53;17.80;99.90
23783;DHT22;12071;50.850;4.446;2023-07-20T00:03:19;18.00;99.90
23783;DHT22;12071;50.850;4.446;2023-07-20T00:05:49;17.70;99.90
23783;DHT22;12071;50.850;4.446;2023-07-20T00:08:15;17.70;99.90
23783;DHT22;12071;50.850;4.446;2023-07-20T00:10:41;17.50;99.90
23783;DHT22;12071;50.850;4.446;2023-07-20T00:13:07;17.50;99.90
23783;DHT22;12071;50.850;4.446;2023-07-20T00:15:33;17.50;99.90
23783;DHT22;12071;50.850;4.446;2023-07-20T00:17:59;17.60;99.90
23783;DHT22;12071;50.850;4.446;2023-07-20T00:20:26;17.50;99.90
23783;DHT22;12071;50.850;4.446;2023-07-20T00:22:51;17.20;99.90
23783;DHT22;12071;50.850;4.446;2023-07-20T00:25:17;17.30;99.90
23783;DHT22;12071;50.850;4.446;2023-07-20T00:27:43;17.20;99.90
23783;DHT22;12071;50.850;4.446;2023-07-20T00:30:10;17.30;99.90
23783;DHT22;12071;50.850;4.446;2023-07-20T00:32:35;17.30;99.90
23783;DHT22;12071;50.850;4.446;2023-07-20T00:35:01;17.30;99.90
23783;DHT22;12071;50.850;4.446;2023-07-20T00:37:26;17.40;99.90
23783;DHT22;12071;50.850;4.446;2023-07-20T00:39:53;17.30;99.90
23783;DHT22;12071;50.850;4.446;2023-07-20T00:42:18;17.30;99.90
23783;DHT22;12071;50.850;4.446;2023-07-20T00:44:44;17.30;99.90
23783;DHT22;12071;50.850;4.446;2023-07-20T00:47:10;17.30;99.90
23783;DHT22;12071;50.850;4.446;2023-07-20T00:49:36;17.40;99.90
23783;DHT22;12071;50.850;4.446;2023-07-20T00:52:03;17.40;99.90
23783;DHT22;12071;50.850;4.446;2023-07-20T00:54:31;17.40;99.90
23783;DHT22;12071;50.850;4.446;2023-07-20T00:56:56;17.40;99.90
23783;DHT22;12071;50.850;4.446;2023-07-20T00:59:23;17.30;99.90
23783;DHT22;12071;50.850;4.446;2023-07-20T01:01:49;17.20;99.90
23783;DHT22;12071;50.850;4.446;2023-07-20T01:04:15;17.20;99.90
23783;DHT22;12071;50.850;4.446;2023-07-20T01:06:53;17.30;99.90
23783;DHT22;12071;50.850;4.446;2023-07-20T01:12:17;17.40;99.90
23783;DHT22;12071;50.850;4.446;2023-07-20T01:14:44;17.40;99.90
23783;DHT22;12071;50.850;4.446;2023-07-20T01:17:10;17.20;99.90
23783;DHT22;12071;50.850;4.446;2023-07-20T01:19:36;17.40;99.90
23783;DHT22;12071;50.850;4.446;2023-07-20T01:24:51;17.20;99.90
23783;DHT22;12071;50.850;4.446;2023-07-20T01:32:59;17.30;99.90
23783;DHT22;12071;50.850;4.446;2023-07-20T01:35:28;17.40;99.90
23783;DHT22;12071;50.850;4.446;2023-07-20T01:37:55;17.60;99.90
23783;DHT22;12071;50.850;4.446;2023-07-20T01:40:21;17.60;99.90
23783;DHT22;12071;50.850;4.446;2023-07-20T01:42:47;17.40;99.90
23783;DHT22;12071;50.850;4.446;2023-07-20T01:45:13;17.20;99.90
23783;DHT22;12071;50.850;4.446;2023-07-20T01:47:39;17.20;99.90
23783;DHT22;12071;50.850;4.446;2023-07-20T01:50:06;17.30;99.90
23783;DHT22;12071;50.850;4.446;2023-07-20T01:52:31;17.40;99.90
23783;DHT22;12071;50.850;4.446;2023-07-20T01:54:57;17.70;99.90
23783;DHT22;12071;50.850;4.446;2023-07-20T01:57:23;17.80;99.90
23783;DHT22;12071;50.850;4.446;2023-07-20T01:59:48;17.50;99.90
23783;DHT22;12071;50.850;4.446;2023-07-20T02:02:14;17.20;99.90
23783;DHT22;12071;50.850;4.446;2023-07-20T02:04:40;17.00;99.90
23783;DHT22;12071;50.850;4.446;2023-07-20T02:07:05;17.00;99.90
23783;DHT22;12071;50.850;4.446;2023-07-20T02:09:31;17.10;99.90
23783;DHT22;12071;50.850;4.446;2023-07-20T02:11:56;17.30;99.90
23783;DHT22;12071;50.850;4.446;2023-07-20T02:14:22;17.20;99.90
23783;DHT22;12071;50.850;4.446;2023-07-20T02:16:48;17.40;99.90
23783;DHT22;12071;50.850;4.446;2023-07-20T02:19:17;17.30;99.90
23783;DHT22;12071;50.850;4.446;2023-07-20T02:21:44;17.40;99.90
23783;DHT22;12071;50.850;4.446;2023-07-20T02:24:09;17.40;99.90
23783;DHT22;12071;50.850;4.446;2023-07-20T02:26:35;17.40;99.90
23783;DHT22;12071;50.850;4.446;2023-07-20T02:29:00;17.20;99.90
23783;DHT22;12071;50.850;4.446;2023-07-20T02:31:30;17.30;99.90
23783;DHT22;12071;50.850;4.446;2023-07-20T02:33:55;17.10;99.90
23783;DHT22;12071;50.850;4.446;2023-07-20T02:36:21;17.10;99.90
23783;DHT22;12071;50.850;4.446;2023-07-20T02:38:47;17.10;99.90
23783;DHT22;12071;50.850;4.446;2023-07-20T02:41:13;17.40;99.90
23783;DHT22;12071;50.850;4.446;2023-07-20T02:43:39;17.40;99.90
23783;DHT22;12071;50.850;4.446;2023-07-20T02:46:05;17.10;99.90
23783;DHT22;12071;50.850;4.446;2023-07-20T02:48:30;17.00;99.90
23783;DHT22;12071;50.850;4.446;2023-07-20T02:50:56;17.00;99.90
23783;DHT22;12071;50.850;4.446;2023-07-20T02:53:21;16.90;99.90
23783;DHT22;12071;50.850;4.446;2023-07-20T02:55:47;16.90;99.90
23783;DHT22;12071;50.850;4.446;2023-07-20T02:58:13;16.80;99.90
23783;DHT22;12071;50.850;4.446;2023-07-20T03:00:38;16.80;1.00
23783;DHT22;12071;50.850;4.446;2023-07-20T03:03:04;16.90;99.90
23783;DHT22;12071;50.850;4.446;2023-07-20T03:05:29;16.90;99.90
23783;DHT22;12071;50.850;4.446;2023-07-20T03:07:55;17.00;99.90
23783;DHT22;12071;50.850;4.446;2023-07-20T03:10:21;17.30;99.90
23783;DHT22;12071;50.850;4.446;2023-07-20T03:12:46;17.60;99.90
23783;DHT22;12071;50.850;4.446;2023-07-20T03:15:12;17.70;99.90
23783;DHT22;12071;50.850;4.446;2023-07-20T03:17:38;17.90;99.90
23783;DHT22;12071;50.850;4.446;2023-07-20T03:20:04;17.40;99.90
23783;DHT22;12071;50.850;4.446;2023-07-20T03:22:30;17.30;99.90
23783;DHT22;12071;50.850;4.446;2023-07-20T03:24:56;17.20;99.90
23783;DHT22;12071;50.850;4.446;2023-07-20T03:27:22;17.20;99.90
23783;DHT22;12071;50.850;4.446;2023-07-20T03:29:48;17.10;99.90
23783;DHT22;12071;50.850;4.446;2023-07-20T03:32:13;17.10;99.90
23783;DHT22;12071;50.850;4.446;2023-07-20T03:34:39;17.40;99.90
23783;DHT22;12071;50.850;4.446;2023-07-20T03:37:05;17.50;99.90
23783;DHT22;12071;50.850;4.446;2023-07-20T03:39:31;17.30;99.90
23783;DHT22;12071;50.850;4.446;2023-07-20T03:41:58;17.20;99.90
23783;DHT22;12071;50.850;4.446;2023-07-20T03:44:24;17.10;99.90
23783;DHT22;12071;50.850;4.446;2023-07-20T03:46:50;17.30;99.90
23783;DHT22;12071;50.850;4.446;2023-07-20T03:49:15;17.40;99.90
23783;DHT22;12071;50.850;4.446;2023-07-20T03:51:41;17.50;99.90
23783;DHT22;12071;50.850;4.446;2023-07-20T03:54:06;17.20;99.90
23783;DHT22;12071;50.850;4.446;2023-07-20T03:56:33;17.00;99.90
23783;DHT22;12071;50.850;4.446;2023-07-20T03:59:01;17.00;1.00
23783;DHT22;12071;50.850;4.446;2023-07-20T04:01:26;17.00;1.00
23783;DHT22;12071;50.850;4.446;2023-07-20T04:03:52;16.80;1.00
23783;DHT22;12071;50.850;4.446;2023-07-20T04:06:17;17.00;1.00
23783;DHT22;12071;50.850;4.446;2023-07-20T04:08:44;17.10;1.00
23783;DHT22;12071;50.850;4.446;2023-07-20T04:11:09;17.20;1.00
23783;DHT22;12071;50.850;4.446;2023-07-20T04:13:35;17.10;1.00
23783;DHT22;12071;50.850;4.446;2023-07-20T04:16:01;17.10;1.00
23783;DHT22;12071;50.850;4.446;2023-07-20T04:18:28;17.40;1.00
23783;DHT22;12071;50.850;4.446;2023-07-20T04:20:54;17.20;1.00
23783;DHT22;12071;50.850;4.446;2023-07-20T04:23:19;17.50;1.00
23783;DHT22;12071;50.850;4.446;2023-07-20T04:25:45;17.20;1.00
23783;DHT22;12071;50.850;4.446;2023-07-20T04:28:10;17.20;1.00
23783;DHT22;12071;50.850;4.446;2023-07-20T04:30:36;17.30;1.00
23783;DHT22;12071;50.850;4.446;2023-07-20T04:33:03;17.40;1.00
23783;DHT22;12071;50.850;4.446;2023-07-20T04:35:53;17.50;1.00
23783;DHT22;12071;50.850;4.446;2023-07-20T04:38:20;17.40;1.00
23783;DHT22;12071;50.850;4.446;2023-07-20T04:40:48;17.30;1.00
23783;DHT22;12071;50.850;4.446;2023-07-20T04:43:17;17.40;1.00
23783;DHT22;12071;50.850;4.446;2023-07-20T04:45:43;17.20;1.00
23783;DHT22;12071;50.850;4.446;2023-07-20T04:48:10;17.00;1.00
23783;DHT22;12071;50.850;4.446;2023-07-20T04:50:37;17.10;1.00
23783;DHT22;12071;50.850;4.446;2023-07-20T04:53:02;17.40;1.00
23783;DHT22;12071;50.850;4.446;2023-07-20T04:55:28;17.40;1.00
23783;DHT22;12071;50.850;4.446;2023-07-20T04:57:54;17.20;1.00
23783;DHT22;12071;50.850;4.446;2023-07-20T05:00:20;17.40;1.00
23783;DHT22;12071;50.850;4.446;2023-07-20T05:02:47;17.40;1.00
23783;DHT22;12071;50.850;4.446;2023-07-20T05:05:15;17.60;1.00
23783;DHT22;12071;50.850;4.446;2023-07-20T05:07:40;18.00;1.00
23783;DHT22;12071;50.850;4.446;2023-07-20T05:10:07;18.10;99.90
23783;DHT22;12071;50.850;4.446;2023-07-20T05:12:32;18.30;99.90
23783;DHT22;12071;50.850;4.446;2023-07-20T05:14:58;18.10;99.90
23783;DHT22;12071;50.850;4.446;2023-07-20T05:17:24;18.00;99.90
23783;DHT22;12071;50.850;4.446;2023-07-20T05:19:50;18.00;99.90
23783;DHT22;12071;50.850;4.446;2023-07-20T05:22:16;18.10;99.90
23783;DHT22;12071;50.850;4.446;2023-07-20T05:24:42;18.20;99.90
23783;DHT22;12071;50.850;4.446;2023-07-20T05:27:08;18.10;99.90
23783;DHT22;12071;50.850;4.446;2023-07-20T05:29:34;18.50;99.90
23783;DHT22;12071;50.850;4.446;2023-07-20T05:31:59;18.40;99.90
23783;DHT22;12071;50.850;4.446;2023-07-20T05:34:25;18.20;99.90
23783;DHT22;12071;50.850;4.446;2023-07-20T05:36:50;18.70;99.90
23783;DHT22;12071;50.850;4.446;2023-07-20T05:39:17;18.40;99.90
23783;DHT22;12071;50.850;4.446;2023-07-20T05:41:42;18.50;99.90
23783;DHT22;12071;50.850;4.446;2023-07-20T05:44:08;18.60;99.90
23783;DHT22;12071;50.850;4.446;2023-07-20T05:46:34;18.20;99.90
23783;DHT22;12071;50.850;4.446;2023-07-20T05:48:59;18.20;99.90
23783;DHT22;12071;50.850;4.446;2023-07-20T05:51:25;18.00;99.90
23783;DHT22;12071;50.850;4.446;2023-07-20T05:53:51;17.90;99.90
23783;DHT22;12071;50.850;4.446;2023-07-20T05:56:16;18.00;99.90
23783;DHT22;12071;50.850;4.446;2023-07-20T05:58:42;18.10;99.90
23783;DHT22;12071;50.850;4.446;2023-07-20T06:01:08;18.30;99.90
23783;DHT22;12071;50.850;4.446;2023-07-20T06:03:33;18.00;99.90
23783;DHT22;12071;50.850;4.446;2023-07-20T06:06:02;18.10;99.90
23783;DHT22;12071;50.850;4.446;2023-07-20T06:08:30;18.00;99.90
23783;DHT22;12071;50.850;4.446;2023-07-20T06:10:57;18.10;99.90
23783;DHT22;12071;50.850;4.446;2023-07-20T06:13:23;18.10;99.90
23783;DHT22;12071;50.850;4.446;2023-07-20T06:15:49;18.30;99.90
23783;DHT22;12071;50.850;4.446;2023-07-20T06:18:14;18.30;99.90
23783;DHT22;12071;50.850;4.446;2023-07-20T06:20:40;18.40;99.90
23783;DHT22;12071;50.850;4.446;2023-07-20T06:23:06;18.90;99.90
23783;DHT22;12071;50.850;4.446;2023-07-20T06:25:32;19.20;99.90
23783;DHT22;12071;50.850;4.446;2023-07-20T06:27:58;19.20;99.90
23783;DHT22;12071;50.850;4.446;2023-07-20T06:30:24;18.60;99.90
23783;DHT22;12071;50.850;4.446;2023-07-20T06:32:50;18.20;99.90
23783;DHT22;12071;50.850;4.446;2023-07-20T06:35:15;18.20;99.90
23783;DHT22;12071;50.850;4.446;2023-07-20T06:37:41;18.20;99.90
23783;DHT22;12071;50.850;4.446;2023-07-20T06:40:07;18.30;99.90
23783;DHT22;12071;50.850;4.446;2023-07-20T06:42:35;18.30;99.90
23783;DHT22;12071;50.850;4.446;2023-07-20T06:45:01;18.80;99.90
23783;DHT22;12071;50.850;4.446;2023-07-20T06:47:27;19.30;99.90
23783;DHT22;12071;50.850;4.446;2023-07-20T06:49:52;19.50;99.90
23783;DHT22;12071;50.850;4.446;2023-07-20T06:52:18;19.60;99.90
23783;DHT22;12071;50.850;4.446;2023-07-20T06:54:44;19.70;99.90
23783;DHT22;12071;50.850;4.446;2023-07-20T06:57:10;19.00;99.90
23783;DHT22;12071;50.850;4.446;2023-07-20T06:59:35;19.00;99.90
23783;DHT22;12071;50.850;4.446;2023-07-20T07:02:01;18.90;99.90
23783;DHT22;12071;50.850;4.446;2023-07-20T07:04:27;18.70;99.90
23783;DHT22;12071;50.850;4.446;2023-07-20T07:06:54;18.60;99.90
23783;DHT22;12071;50.850;4.446;2023-07-20T07:09:19;19.20;99.90
23783;DHT22;12071;50.850;4.446;2023-07-20T07:11:46;19.70;99.90
23783;DHT22;12071;50.850;4.446;2023-07-20T07:14:12;19.30;99.90
23783;DHT22;12071;50.850;4.446;2023-07-20T07:16:38;18.90;99.90
23783;DHT22;12071;50.850;4.446;2023-07-20T07:19:04;19.10;99.90
23783;DHT22;12071;50.850;4.446;2023-07-20T07:21:31;19.60;99.90
23783;DHT22;12071;50.850;4.446;2023-07-20T07:23:56;19.90;99.90
23783;DHT22;12071;50.850;4.446;2023-07-20T07:26:23;19.80;99.90
23783;DHT22;12071;50.850;4.446;2023-07-20T07:28:49;20.00;99.90
23783;DHT22;12071;50.850;4.446;2023-07-20T07:31:15;20.50;99.90
23783;DHT22;12071;50.850;4.446;2023-07-20T07:33:40;20.50;99.90
23783;DHT22;12071;50.850;4.446;2023-07-20T07:36:06;20.70;99.90
23783;DHT22;12071;50.850;4.446;2023-07-20T07:38:32;20.30;54.70
23783;DHT22;12071;50.850;4.446;2023-07-20T07:40:58;20.00;99.90
23783;DHT22;12071;50.850;4.446;2023-07-20T07:43:24;20.00;98.30
23783;DHT22;12071;50.850;4.446;2023-07-20T07:45:50;20.20;37.80
23783;DHT22;12071;50.850;4.446;2023-07-20T07:48:15;20.10;3.80
23783;DHT22;12071;50.850;4.446;2023-07-20T07:50:41;20.20;1.00
23783;DHT22;12071;50.850;4.446;2023-07-20T07:53:10;20.00;1.00
23783;DHT22;12071;50.850;4.446;2023-07-20T07:55:35;19.90;1.00
23783;DHT22;12071;50.850;4.446;2023-07-20T07:58:01;20.10;1.00
23783;DHT22;12071;50.850;4.446;2023-07-20T08:00:27;20.50;1.00
23783;DHT22;12071;50.850;4.446;2023-07-20T08:02:53;20.50;1.00
23783;DHT22;12071;50.850;4.446;2023-07-20T08:05:18;20.40;1.00
23783;DHT22;12071;50.850;4.446;2023-07-20T08:07:44;20.60;1.00
23783;DHT22;12071;50.850;4.446;2023-07-20T08:10:10;20.70;1.00
23783;DHT22;12071;50.850;4.446;2023-07-20T08:12:36;21.00;1.00
23783;DHT22;12071;50.850;4.446;2023-07-20T08:15:02;20.60;99.90
23783;DHT22;12071;50.850;4.446;2023-07-20T08:17:28;20.60;1.00
23783;DHT22;12071;50.850;4.446;2023-07-20T08:19:54;20.90;96.60
23783;DHT22;12071;50.850;4.446;2023-07-20T08:22:19;20.60;99.90
23783;DHT22;12071;50.850;4.446;2023-07-20T08:24:45;20.10;99.90
23783;DHT22;12071;50.850;4.446;2023-07-20T08:27:10;20.30;99.90
23783;DHT22;12071;50.850;4.446;2023-07-20T08:29:36;20.30;99.90
23783;DHT22;12071;50.850;4.446;2023-07-20T08:32:03;20.60;99.90
23783;DHT22;12071;50.850;4.446;2023-07-20T08:34:29;21.00;99.90
23783;DHT22;12071;50.850;4.446;2023-07-20T08:36:55;21.20;99.90
23783;DHT22;12071;50.850;4.446;2023-07-20T08:39:22;21.10;1.00
23783;DHT22;12071;50.850;4.446;2023-07-20T08:41:48;21.50;1.00
23783;DHT22;12071;50.850;4.446;2023-07-20T08:44:14;21.60;99.90
23783;DHT22;12071;50.850;4.446;2023-07-20T08:46:41;21.40;99.90
23783;DHT22;12071;50.850;4.446;2023-07-20T08:49:08;21.90;1.00
23783;DHT22;12071;50.850;4.446;2023-07-20T08:51:35;21.10;99.90
23783;DHT22;12071;50.850;4.446;2023-07-20T08:54:02;20.80;99.90
23783;DHT22;12071;50.850;4.446;2023-07-20T08:56:31;21.10;99.90
23783;DHT22;12071;50.850;4.446;2023-07-20T08:58:57;21.10;99.90
23783;DHT22;12071;50.850;4.446;2023-07-20T09:01:24;21.20;99.90
23783;DHT22;12071;50.850;4.446;2023-07-20T09:03:50;21.80;1.00
23783;DHT22;12071;50.850;4.446;2023-07-20T09:06:16;22.20;99.90
23783;DHT22;12071;50.850;4.446;2023-07-20T09:08:42;22.40;99.90
23783;DHT22;12071;50.850;4.446;2023-07-20T09:11:11;22.20;54.30
23783;DHT22;12071;50.850;4.446;2023-07-20T09:13:37;21.40;99.90
23783;DHT22;12071;50.850;4.446;2023-07-20T09:16:03;21.30;1.00
23783;DHT22;12071;50.850;4.446;2023-07-20T09:18:31;21.50;94.90
23783;DHT22;12071;50.850;4.446;2023-07-20T09:21:06;22.00;1.00
23783;DHT22;12071;50.850;4.446;2023-07-20T09:23:33;21.90;99.90
23783;DHT22;12071;50.850;4.446;2023-07-20T09:26:00;21.70;1.00
23783;DHT22;12071;50.850;4.446;2023-07-20T09:28:26;22.20;99.90
23783;DHT22;12071;50.850;4.446;2023-07-20T09:30:52;22.60;99.90
23783;DHT22;12071;50.850;4.446;2023-07-20T09:33:21;22.90;99.90
23783;DHT22;12071;50.850;4.446;2023-07-20T09:35:47;23.00;99.90
23783;DHT22;12071;50.850;4.446;2023-07-20T09:38:14;22.60;99.90
23783;DHT22;12071;50.850;4.446;2023-07-20T09:40:41;22.30;91.30
23783;DHT22;12071;50.850;4.446;2023-07-20T09:43:08;22.50;99.90
23783;DHT22;12071;50.850;4.446;2023-07-20T09:45:44;22.60;98.60
23783;DHT22;12071;50.850;4.446;2023-07-20T09:48:10;23.30;99.90
23783;DHT22;12071;50.850;4.446;2023-07-20T09:50:43;23.80;1.00
23783;DHT22;12071;50.850;4.446;2023-07-20T09:53:14;23.90;99.90
23783;DHT22;12071;50.850;4.446;2023-07-20T09:55:41;23.90;99.90
23783;DHT22;12071;50.850;4.446;2023-07-20T09:58:08;23.80;99.90
23783;DHT22;12071;50.850;4.446;2023-07-20T10:00:37;23.10;1.00
23783;DHT22;12071;50.850;4.446;2023-07-20T10:03:04;22.80;99.90
23783;DHT22;12071;50.850;4.446;2023-07-20T10:05:35;22.20;99.90
23783;DHT22;12071;50.850;4.446;2023-07-20T10:08:03;22.40;30.00
23783;DHT22;12071;50.850;4.446;2023-07-20T10:10:32;22.70;1.00
23783;DHT22;12071;50.850;4.446;2023-07-20T10:13:00;23.30;1.00
23783;DHT22;12071;50.850;4.446;2023-07-20T10:15:32;23.60;1.00
23783;DHT22;12071;50.850;4.446;2023-07-20T10:20:29;24.20;99.90
23783;DHT22;12071;50.850;4.446;2023-07-20T10:22:55;24.20;1.00
23783;DHT22;12071;50.850;4.446;2023-07-20T10:25:23;24.30;99.90
23783;DHT22;12071;50.850;4.446;2023-07-20T10:27:49;23.70;99.90
23783;DHT22;12071;50.850;4.446;2023-07-20T10:30:17;23.20;99.90
23783;DHT22;12071;50.850;4.446;2023-07-20T10:32:43;23.30;99.90
23783;DHT22;12071;50.850;4.446;2023-07-20T10:35:17;23.80;54.10
23783;DHT22;12071;50.850;4.446;2023-07-20T10:42:58;23.60;99.90
23783;DHT22;12071;50.850;4.446;2023-07-20T10:45:40;23.70;1.00
23783;DHT22;12071;50.850;4.446;2023-07-20T10:48:16;23.70;1.00
23783;DHT22;12071;50.850;4.446;2023-07-20T10:50:43;23.80;1.00
23783;DHT22;12071;50.850;4.446;2023-07-20T10:53:17;23.80;99.90
23783;DHT22;12071;50.850;4.446;2023-07-20T10:55:43;24.10;1.00
23783;DHT22;12071;50.850;4.446;2023-07-20T10:58:10;23.80;99.90
23783;DHT22;12071;50.850;4.446;2023-07-20T11:00:37;23.50;99.90
23783;DHT22;12071;50.850;4.446;2023-07-20T11:03:03;23.40;59.10
23783;DHT22;12071;50.850;4.446;2023-07-20T11:05:33;23.20;1.00
23783;DHT22;12071;50.850;4.446;2023-07-20T11:08:12;23.10;99.90
23783;DHT22;12071;50.850;4.446;2023-07-20T11:10:38;23.20;1.00
23783;DHT22;12071;50.850;4.446;2023-07-20T11:13:21;23.30;1.00
23783;DHT22;12071;50.850;4.446;2023-07-20T11:18:25;23.80;99.80
23783;DHT22;12071;50.850;4.446;2023-07-20T11:20:51;23.70;99.90
23783;DHT22;12071;50.850;4.446;2023-07-20T11:23:19;23.60;1.00
23783;DHT22;12071;50.850;4.446;2023-07-20T11:25:45;23.70;1.00
23783;DHT22;12071;50.850;4.446;2023-07-20T11:28:11;23.70;1.00
23783;DHT22;12071;50.850;4.446;2023-07-20T11:30:37;23.90;99.90
23783;DHT22;12071;50.850;4.446;2023-07-20T11:33:04;24.10;99.90
23783;DHT22;12071;50.850;4.446;2023-07-20T11:35:34;24.00;99.90
23783;DHT22;12071;50.850;4.446;2023-07-20T11:38:00;23.90;28.40
23783;DHT22;12071;50.850;4.446;2023-07-20T11:40:26;24.10;15.30
23783;DHT22;12071;50.850;4.446;2023-07-20T11:42:51;24.80;9.00
23783;DHT22;12071;50.850;4.446;2023-07-20T11:45:19;25.00;99.90
23783;DHT22;12071;50.850;4.446;2023-07-20T11:47:45;25.30;99.90
23783;DHT22;12071;50.850;4.446;2023-07-20T11:50:11;24.70;99.90
23783;DHT22;12071;50.850;4.446;2023-07-20T11:52:39;24.40;99.90
23783;DHT22;12071;50.850;4.446;2023-07-20T11:55:06;24.50;99.90
23783;DHT22;12071;50.850;4.446;2023-07-20T11:57:32;24.50;99.90
23783;DHT22;12071;50.850;4.446;2023-07-20T12:00:01;24.30;1.00
23783;DHT22;12071;50.850;4.446;2023-07-20T12:02:30;24.60;1.00
23783;DHT22;12071;50.850;4.446;2023-07-20T12:04:57;24.30;99.90
23783;DHT22;12071;50.850;4.446;2023-07-20T12:07:28;24.00;99.90
23783;DHT22;12071;50.850;4.446;2023-07-20T12:10:26;24.10;1.00
23783;DHT22;12071;50.850;4.446;2023-07-20T12:12:52;24.20;99.90
23783;DHT22;12071;50.850;4.446;2023-07-20T12:15:27;24.10;99.90
23783;DHT22;12071;50.850;4.446;2023-07-20T12:17:57;25.00;58.40
23783;DHT22;12071;50.850;4.446;2023-07-20T12:20:30;25.30;1.00
23783;DHT22;12071;50.850;4.446;2023-07-20T12:22:59;25.50;47.10
23783;DHT22;12071;50.850;4.446;2023-07-20T12:25:42;25.50;4.90
23783;DHT22;12071;50.850;4.446;2023-07-20T12:28:12;25.40;99.90
23783;DHT22;12071;50.850;4.446;2023-07-20T12:30:38;25.00;1.00
23783;DHT22;12071;50.850;4.446;2023-07-20T12:33:04;24.60;1.00
23783;DHT22;12071;50.850;4.446;2023-07-20T12:35:31;25.00;1.00
23783;DHT22;12071;50.850;4.446;2023-07-20T12:37:57;25.70;99.90
23783;DHT22;12071;50.850;4.446;2023-07-20T12:40:23;25.70;1.00
23783;DHT22;12071;50.850;4.446;2023-07-20T12:42:48;26.00;99.90
23783;DHT22;12071;50.850;4.446;2023-07-20T12:45:14;25.90;99.90
23783;DHT22;12071;50.850;4.446;2023-07-20T12:47:43;25.70;99.90
23783;DHT22;12071;50.850;4.446;2023-07-20T12:50:10;25.60;99.90
23783;DHT22;12071;50.850;4.446;2023-07-20T12:52:37;25.90;1.00
23783;DHT22;12071;50.850;4.446;2023-07-20T12:55:04;26.20;1.00
23783;DHT22;12071;50.850;4.446;2023-07-20T12:57:30;26.10;99.90
23783;DHT22;12071;50.850;4.446;2023-07-20T12:59:56;25.80;99.90
23783;DHT22;12071;50.850;4.446;2023-07-20T13:02:21;25.60;99.90
23783;DHT22;12071;50.850;4.446;2023-07-20T13:04:48;25.30;99.90
23783;DHT22;12071;50.850;4.446;2023-07-20T13:07:14;25.30;1.00
23783;DHT22;12071;50.850;4.446;2023-07-20T13:09:39;25.50;1.00
23783;DHT22;12071;50.850;4.446;2023-07-20T13:12:05;25.40;99.90
23783;DHT22;12071;50.850;4.446;2023-07-20T13:14:31;25.70;99.90
23783;DHT22;12071;50.850;4.446;2023-07-20T13:16:57;25.70;99.90
23783;DHT22;12071;50.850;4.446;2023-07-20T13:19:23;25.40;99.90
23783;DHT22;12071;50.850;4.446;2023-07-20T13:21:50;25.00;99.90
23783;DHT22;12071;50.850;4.446;2023-07-20T13:24:15;24.80;99.90
23783;DHT22;12071;50.850;4.446;2023-07-20T13:26:41;24.80;1.00
23783;DHT22;12071;50.850;4.446;2023-07-20T13:29:07;24.50;17.90
23783;DHT22;12071;50.850;4.446;2023-07-20T13:31:32;24.10;99.90
23783;DHT22;12071;50.850;4.446;2023-07-20T13:33:58;23.70;1.00
23783;DHT22;12071;50.850;4.446;2023-07-20T13:36:24;23.40;99.90
23783;DHT22;12071;50.850;4.446;2023-07-20T13:38:49;23.50;8.20
23783;DHT22;12071;50.850;4.446;2023-07-20T13:41:15;23.70;99.90
23783;DHT22;12071;50.850;4.446;2023-07-20T13:43:42;23.20;1.00
23783;DHT22;12071;50.850;4.446;2023-07-20T13:46:07;22.70;99.90
23783;DHT22;12071;50.850;4.446;2023-07-20T13:48:33;22.40;99.90
23783;DHT22;12071;50.850;4.446;2023-07-20T13:50:58;22.20;99.90
23783;DHT22;12071;50.850;4.446;2023-07-20T13:53:24;22.60;19.80
23783;DHT22;12071;50.850;4.446;2023-07-20T13:55:50;22.80;81.70
23783;DHT22;12071;50.850;4.446;2023-07-20T13:58:15;22.80;1.00
23783;DHT22;12071;50.850;4.446;2023-07-20T14:00:41;23.00;99.90
23783;DHT22;12071;50.850;4.446;2023-07-20T14:03:07;23.30;99.90
23783;DHT22;12071;50.850;4.446;2023-07-20T14:05:33;23.70;99.90
23783;DHT22;12071;50.850;4.446;2023-07-20T14:07:59;24.00;99.90
23783;DHT22;12071;50.850;4.446;2023-07-20T14:10:24;24.40;1.00
23783;DHT22;12071;50.850;4.446;2023-07-20T14:12:50;24.60;99.90
23783;DHT22;12071;50.850;4.446;2023-07-20T14:15:16;24.50;99.90
23783;DHT22;12071;50.850;4.446;2023-07-20T14:17:43;24.70;99.90
23783;DHT22;12071;50.850;4.446;2023-07-20T14:20:09;24.50;99.90
23783;DHT22;12071;50.850;4.446;2023-07-20T14:22:35;24.70;99.90
23783;DHT22;12071;50.850;4.446;2023-07-20T14:25:00;25.90;99.90
23783;DHT22;12071;50.850;4.446;2023-07-20T14:27:26;27.20;56.30
23783;DHT22;12071;50.850;4.446;2023-07-20T14:29:51;28.90;99.90
23783;DHT22;12071;50.850;4.446;2023-07-20T14:32:18;30.80;37.70
23783;DHT22;12071;50.850;4.446;2023-07-20T14:34:44;31.70;1.00
23783;DHT22;12071;50.850;4.446;2023-07-20T14:37:10;32.40;1.00
23783;DHT22;12071;50.850;4.446;2023-07-20T14:39:35;32.60;1.00
23783;DHT22;12071;50.850;4.446;2023-07-20T14:42:01;33.60;1.00
23783;DHT22;12071;50.850;4.446;2023-07-20T14:44:27;33.80;99.90
23783;DHT22;12071;50.850;4.446;2023-07-20T14:46:53;34.70;99.90
23783;DHT22;12071;50.850;4.446;2023-07-20T14:49:18;33.80;99.90
23783;DHT22;12071;50.850;4.446;2023-07-20T14:51:44;34.70;99.90
23783;DHT22;12071;50.850;4.446;2023-07-20T14:54:12;35.40;99.90
23783;DHT22;12071;50.850;4.446;2023-07-20T14:56:38;35.60;99.90
23783;DHT22;12071;50.850;4.446;2023-07-20T14:59:05;36.40;99.90
23783;DHT22;12071;50.850;4.446;2023-07-20T15:01:31;36.40;99.90
23783;DHT22;12071;50.850;4.446;2023-07-20T15:03:57;35.80;99.90
23783;DHT22;12071;50.850;4.446;2023-07-20T15:06:23;34.40;99.90
23783;DHT22;12071;50.850;4.446;2023-07-20T15:08:49;33.50;99.90
23783;DHT22;12071;50.850;4.446;2023-07-20T15:11:14;32.60;99.90
23783;DHT22;12071;50.850;4.446;2023-07-20T15:13:40;31.40;99.90
23783;DHT22;12071;50.850;4.446;2023-07-20T15:16:09;30.70;99.90
23783;DHT22;12071;50.850;4.446;2023-07-20T15:18:36;29.60;99.90
23783;DHT22;12071;50.850;4.446;2023-07-20T15:21:01;28.50;99.90
23783;DHT22;12071;50.850;4.446;2023-07-20T15:23:27;27.60;99.90
23783;DHT22;12071;50.850;4.446;2023-07-20T15:25:53;27.20;99.90
23783;DHT22;12071;50.850;4.446;2023-07-20T15:28:18;26.50;1.00
23783;DHT22;12071;50.850;4.446;2023-07-20T15:30:45;26.30;1.00
23783;DHT22;12071;50.850;4.446;2023-07-20T15:33:10;26.30;1.00
23783;DHT22;12071;50.850;4.446;2023-07-20T15:35:36;26.50;1.00
23783;DHT22;12071;50.850;4.446;2023-07-20T15:38:02;25.90;1.00
23783;DHT22;12071;50.850;4.446;2023-07-20T15:40:27;25.80;1.00
23783;DHT22;12071;50.850;4.446;2023-07-20T15:42:53;25.30;1.00
23783;DHT22;12071;50.850;4.446;2023-07-20T15:45:18;25.30;21.60
23783;DHT22;12071;50.850;4.446;2023-07-20T15:47:44;25.00;23.30
23783;DHT22;12071;50.850;4.446;2023-07-20T15:50:11;24.90;99.90
23783;DHT22;12071;50.850;4.446;2023-07-20T15:52:36;24.60;84.30